Rogers Hill, Texas
Current Conditions -  °F | °C
As of 4:53 PM on Friday 24 Oct 2014 (Local Time) from KCNW Reporting Station
Clear Clear  
Wind Chill: 82°   Ceiling: Unl
Heat Index: 82°   Visibility: 10mi
Dew Point: 59°   Wind: 5mph
Humidity: 45%   Direction: 150°SSE
Pressure: 30.08"   Gusts: NA
Location:  31.7636°N, 97.1357°W
Report Text: KCNW 242153Z 15004KT 10SM SKC 28/15 A3008
Loading
Personal Weather Stations






























Interactive Weather Map
Tropical Storm Tracking
New forecast layout! Learn more

10-Day Weather Forecast

Advertisements
Track Severe Weather on mobile